Air Quality Table

TIMESTAMP NO2 SO2 O3 PM10 PM2.5 CO TEMP HUM WS WD NO
2021-08-02 01:00 3.29 ug/m3 0.75 ug/m3 96.01 ug/m3 31.14 ug/m3 10.16 ug/m3 0.15 mg/m3 30.6 C 54.8 % 2.99 m/s 170.68 Deg 0.05 ug/m3
2021-08-01 01:00 1.45 ug/m3 0.61 ug/m3 101.91 ug/m3 26.87 ug/m3 9.65 ug/m3 0.17 mg/m3 28.72 C 72.54 % 2.6 m/s 213.02 Deg 0.04 ug/m3
2021-07-31 01:00 1.36 ug/m3 0.98 ug/m3 102.95 ug/m3 13.94 ug/m3 6.13 ug/m3 0.16 mg/m3 28.15 C 65 % 3.77 m/s 222.16 Deg 0.08 ug/m3
2021-07-30 01:00 2.56 ug/m3 0.99 ug/m3 105.91 ug/m3 8.44 ug/m3 5.26 ug/m3 0.16 mg/m3 27.88 C 60.05 % 3.52 m/s 304.8 Deg 0.04 ug/m3
2021-07-29 01:00 6.82 ug/m3 0.8 ug/m3 103.83 ug/m3 11.14 ug/m3 5.94 ug/m3 0.16 mg/m3 26.83 C 68.55 % 2.89 m/s 317.96 Deg 0.9 ug/m3
2021-07-28 01:00 1.64 ug/m3 0.51 ug/m3 111.15 ug/m3 8.45 ug/m3 6.02 ug/m3 0.16 mg/m3 26.71 C 69.75 % 1.91 m/s 178.04 Deg 0.11 ug/m3
2021-07-27 01:00 1.47 ug/m3 0.38 ug/m3 96.54 ug/m3 9.32 ug/m3 5.36 ug/m3 0.15 mg/m3 27.06 C 66.16 % 3.39 m/s 168.79 Deg 0.05 ug/m3
2021-07-26 01:00 2.16 ug/m3 0.31 ug/m3 94.61 ug/m3 6.53 ug/m3 4.58 ug/m3 0.13 mg/m3 26.54 C 66.4 % 2.72 m/s 200.11 Deg 0.03 ug/m3
2021-07-25 01:00 1.63 ug/m3 0.4 ug/m3 101.11 ug/m3 6.21 ug/m3 4.98 ug/m3 0.13 mg/m3 25.45 C 77.65 % 3.32 m/s 258.14 Deg 0.2 ug/m3
2021-07-24 01:00 N/A 0.71 ug/m3 103.87 ug/m3 10.93 ug/m3 6.4 ug/m3 0.13 mg/m3 25.58 C 76.7 % 2.94 m/s 207.33 Deg N/A
2021-07-23 01:00 N/A 0.48 ug/m3 109.74 ug/m3 8.66 ug/m3 5.89 ug/m3 0.13 mg/m3 25.29 C 77.28 % 3.46 m/s 256.46 Deg N/A
2021-07-22 01:00 N/A 0.49 ug/m3 110.51 ug/m3 7.82 ug/m3 5.9 ug/m3 0.15 mg/m3 24.55 C 83.53 % 2.43 m/s 214.12 Deg N/A
2021-07-21 01:00 N/A N/A 112.78 ug/m3 N/A N/A 0.16 mg/m3 24.27 C 85.06 % 3.35 m/s 125.81 Deg N/A
2021-07-20 01:00 N/A 0.24 ug/m3 111.56 ug/m3 13.09 ug/m3 5.58 ug/m3 0.14 mg/m3 23.29 C 90.22 % 4.69 m/s 298.23 Deg N/A
2021-07-19 01:00 N/A 0.05 ug/m3 111.76 ug/m3 14.42 ug/m3 5 ug/m3 0.14 mg/m3 23.41 C 85.48 % 7.89 m/s 296.99 Deg N/A
2021-07-18 01:00 N/A -0.02 ug/m3 100.13 ug/m3 12.99 ug/m3 4.02 ug/m3 0.12 mg/m3 23.42 C 80.16 % 8.26 m/s 303.62 Deg N/A
2021-07-17 01:00 N/A 0.27 ug/m3 87.43 ug/m3 10.63 ug/m3 3.69 ug/m3 0.12 mg/m3 24.34 C 78.76 % 5.83 m/s 304.03 Deg N/A
2021-07-16 01:00 N/A 0.18 ug/m3 78.55 ug/m3 12.48 ug/m3 3.4 ug/m3 0.13 mg/m3 24.67 C 79.31 % 3.83 m/s 245.28 Deg N/A
2021-07-15 01:00 N/A 0.17 ug/m3 86.82 ug/m3 20.02 ug/m3 5.66 ug/m3 0.12 mg/m3 25.45 C 85.95 % 3.69 m/s 299.21 Deg N/A
2021-07-14 01:00 1.05 ug/m3 -0.02 ug/m3 92.12 ug/m3 12.58 ug/m3 4.1 ug/m3 0.14 mg/m3 26.32 C 83.62 % 4.7 m/s 183.52 Deg 0.07 ug/m3
2021-07-13 01:00 3.2 ug/m3 0.23 ug/m3 82.25 ug/m3 11.23 ug/m3 4.56 ug/m3 0.14 mg/m3 25.77 C 86.51 % 2.91 m/s 165.64 Deg 0.37 ug/m3
2021-07-12 01:00 2.22 ug/m3 0.46 ug/m3 87.02 ug/m3 10.57 ug/m3 3.66 ug/m3 0.11 mg/m3 24.95 C 80.18 % 3.67 m/s 235.23 Deg 0.16 ug/m3
2021-07-11 01:00 2.56 ug/m3 0.36 ug/m3 86.66 ug/m3 11.93 ug/m3 3.82 ug/m3 0.12 mg/m3 25.52 C 81.74 % 4.47 m/s 296.55 Deg 0.22 ug/m3
2021-07-10 01:00 1.23 ug/m3 -0.07 ug/m3 80.91 ug/m3 9.69 ug/m3 4.69 ug/m3 0.14 mg/m3 25.61 C 91.5 % 4.67 m/s 260.41 Deg 0.06 ug/m3
2021-07-09 01:00 1.94 ug/m3 0.08 ug/m3 85.48 ug/m3 6.37 ug/m3 4.26 ug/m3 0.13 mg/m3 26.49 C 80.19 % 2.81 m/s 257.45 Deg 0.13 ug/m3
2021-07-08 01:00 1.31 ug/m3 0.26 ug/m3 91.6 ug/m3 9.27 ug/m3 4.74 ug/m3 0.13 mg/m3 26.74 C 74.13 % 2.35 m/s 224.15 Deg 0.12 ug/m3
2021-07-07 01:00 3.48 ug/m3 0.12 ug/m3 77.26 ug/m3 9.06 ug/m3 3.4 ug/m3 0.12 mg/m3 24.56 C 76.53 % 4.22 m/s 87.04 Deg 0.17 ug/m3
2021-07-06 01:00 2.76 ug/m3 0.06 ug/m3 86.39 ug/m3 14.78 ug/m3 5.18 ug/m3 0.13 mg/m3 25.36 C 84.64 % 5.26 m/s 229.84 Deg 0.15 ug/m3
2021-07-05 01:00 1.22 ug/m3 0.32 ug/m3 115.77 ug/m3 9.89 ug/m3 6.37 ug/m3 0.17 mg/m3 27.07 C 70.46 % 3.83 m/s 206.32 Deg 0.06 ug/m3
2021-07-04 01:00 4.92 ug/m3 0.68 ug/m3 105.65 ug/m3 10.28 ug/m3 5.36 ug/m3 0.14 mg/m3 27.61 C 51.87 % 2.71 m/s 219.86 Deg 0.16 ug/m3

It is to be noted that the data is provisional and subject to quality assurance procedures. For validated data kindly refer your request to contact.air@era.org.mt